Time;durP1;ratioP1;P1;durP2;ratioP2;P2;SDS_P1;SDS_P2;PMS_P1;PMS_P2;Temp;Humidity;BMP_temperature;BMP_pressure;BME280_temperature;BME280_humidity;BME280_pressure;Samples;Min_cycle;Max_cycle;Signal;HPM_P1;HPM_P2
2023/05/18 00:02:05;;;;;;;5.73;4.40;;;;;;;7.06;100.00;100976.88;5068935;28;20677;-78
2023/05/18 00:04:35;;;;;;;6.00;3.87;;;;;;;7.03;100.00;100981.09;5065466;28;20899;-77
2023/05/18 00:07:05;;;;;;;4.57;4.13;;;;;;;6.96;100.00;100970.69;5062715;28;20297;-78
2023/05/18 00:09:34;;;;;;;4.43;4.03;;;;;;;6.91;100.00;100969.75;5075588;28;21017;-77
2023/05/18 00:12:01;;;;;;;4.57;4.17;;;;;;;6.84;100.00;100967.91;5081390;28;20215;-76
2023/05/18 00:14:27;;;;;;;4.40;3.93;;;;;;;6.81;100.00;100971.28;5064546;28;20192;-77
2023/05/18 00:16:54;;;;;;;5.17;4.10;;;;;;;6.75;100.00;100971.19;5085670;28;20244;-77
2023/05/18 00:19:21;;;;;;;4.40;4.00;;;;;;;6.69;100.00;100964.25;5080832;28;20192;-77
2023/05/18 00:21:47;;;;;;;7.33;4.50;;;;;;;6.67;100.00;100970.16;5084528;28;20216;-77
2023/05/18 00:24:14;;;;;;;5.43;4.67;;;;;;;6.62;100.00;100966.66;5079898;28;20219;-77
2023/05/18 00:26:42;;;;;;;4.87;4.30;;;;;;;6.58;100.00;100963.16;5086363;28;20870;-77
2023/05/18 00:29:08;;;;;;;4.80;4.17;;;;;;;6.52;100.00;100957.91;5082504;28;20202;-77
2023/05/18 00:31:35;;;;;;;4.67;4.23;;;;;;;6.46;100.00;100965.50;5080661;28;20384;-77
2023/05/18 00:34:07;;;;;;;5.07;4.57;;;;;;;6.42;100.00;100963.72;5085217;28;20608;-77
2023/05/18 00:36:33;;;;;;;5.00;4.50;;;;;;;6.36;100.00;100955.06;5087606;28;20218;-77
2023/05/18 00:38:59;;;;;;;6.47;4.67;;;;;;;6.34;100.00;100963.59;5083159;28;20593;-77
2023/05/18 00:41:26;;;;;;;5.57;4.70;;;;;;;6.33;100.00;100961.84;5080760;28;20666;-77
2023/05/18 00:43:52;;;;;;;5.07;4.67;;;;;;;6.29;100.00;100957.47;5087330;28;20188;-75
2023/05/18 00:46:17;;;;;;;6.57;5.33;;;;;;;6.27;100.00;100959.16;5064236;28;20202;-77
2023/05/18 00:48:43;;;;;;;6.77;5.70;;;;;;;6.26;100.00;100955.72;5075142;28;20252;-77
2023/05/18 00:51:10;;;;;;;6.63;5.60;;;;;;;6.33;100.00;100954.13;5064878;28;20178;-77
2023/05/18 00:53:35;;;;;;;7.17;6.00;;;;;;;6.37;100.00;100953.34;5086642;28;20182;-77
2023/05/18 00:56:02;;;;;;;7.50;5.87;;;;;;;6.42;100.00;100959.44;5083064;28;20221;-76
2023/05/18 00:58:27;;;;;;;6.00;5.40;;;;;;;6.48;100.00;100963.84;5067009;28;20194;-77
2023/05/18 01:00:53;;;;;;;6.13;5.50;;;;;;;6.53;100.00;100962.22;5078826;28;20185;-77
2023/05/18 01:03:19;;;;;;;6.50;5.50;;;;;;;6.56;100.00;100963.13;5074844;28;20211;-77
2023/05/18 01:05:48;;;;;;;8.60;5.77;;;;;;;6.60;100.00;100956.34;5082065;28;20237;-77
2023/05/18 01:08:14;;;;;;;7.03;5.60;;;;;;;6.63;100.00;100956.41;5080261;28;20210;-78
2023/05/18 01:10:42;;;;;;;7.63;6.10;;;;;;;6.65;100.00;100964.16;5087018;28;20185;-77
2023/05/18 01:13:22;;;;;;;5.43;4.93;;;;;;;6.66;100.00;100953.00;5088721;28;20230;-77
2023/05/18 01:15:52;;;;;;;7.17;5.33;;;;;;;6.65;100.00;100957.31;5071483;28;20231;-77
2023/05/18 01:18:37;;;;;;;8.20;5.33;;;;;;;6.63;100.00;100948.69;5069216;28;20289;-77
2023/05/18 01:21:24;;;;;;;6.73;5.60;;;;;;;6.64;100.00;100958.13;5087370;28;20213;-76
2023/05/18 01:24:27;;;;;;;6.50;5.33;;;;;;;6.61;100.00;100952.06;5068574;28;20192;-76
2023/05/18 01:26:56;;;;;;;6.73;5.47;;;;;;;6.56;100.00;100952.00;5074839;28;20304;-78
2023/05/18 01:29:25;;;;;;;6.93;5.07;;;;;;;6.52;100.00;100953.63;5086376;28;20190;-77
2023/05/18 01:31:51;;;;;;;7.67;5.63;;;;;;;6.51;100.00;100954.47;5072224;28;20217;-77
2023/05/18 01:34:16;;;;;;;7.20;5.53;;;;;;;6.52;100.00;100947.63;5090599;28;20557;-77
2023/05/18 01:36:42;;;;;;;5.90;5.30;;;;;;;6.50;100.00;100957.91;5072161;28;20390;-77
2023/05/18 01:39:08;;;;;;;8.10;6.07;;;;;;;6.47;100.00;100952.69;5078489;28;20196;-77
2023/05/18 01:41:44;;;;;;;7.33;5.63;;;;;;;6.47;100.00;100952.69;5072287;28;20664;-78
2023/05/18 01:44:17;;;;;;;7.23;5.20;;;;;;;6.45;100.00;100956.06;5088902;28;20280;-76
2023/05/18 01:46:48;;;;;;;6.67;5.50;;;;;;;6.44;100.00;100960.34;5073978;28;20208;-77
2023/05/18 01:49:45;;;;;;;8.03;5.93;;;;;;;6.41;100.00;100952.56;5083596;28;20186;-77
2023/05/18 01:52:15;;;;;;;6.77;5.23;;;;;;;6.43;100.00;100948.31;5085583;28;20207;-76
2023/05/18 01:54:43;;;;;;;8.50;6.10;;;;;;;6.43;100.00;100953.47;5088144;28;20606;-77
2023/05/18 01:57:10;;;;;;;5.67;4.70;;;;;;;6.42;100.00;100945.75;5086461;28;20214;-77
2023/05/18 01:59:36;;;;;;;8.43;5.03;;;;;;;6.43;100.00;100956.03;5084052;28;20186;-76
2023/05/18 02:02:02;;;;;;;7.33;5.37;;;;;;;6.40;100.00;100955.97;5089088;28;20191;-78
2023/05/18 02:04:27;;;;;;;5.57;5.03;;;;;;;6.41;100.00;100942.28;5072668;28;20189;-78
2023/05/18 02:06:53;;;;;;;8.30;5.03;;;;;;;6.40;100.00;100949.16;5073797;28;20221;-77
2023/05/18 02:09:20;;;;;;;6.27;5.50;;;;;;;6.40;100.00;100941.44;5068660;28;20667;-78
2023/05/18 02:11:46;;;;;;;6.13;5.43;;;;;;;6.39;100.00;100938.81;5070999;28;20201;-77
2023/05/18 02:14:11;;;;;;;7.67;5.70;;;;;;;6.38;100.00;100940.53;5089562;28;20191;-77
2023/05/18 02:16:36;;;;;;;6.63;5.23;;;;;;;6.39;100.00;100939.69;5081642;28;20532;-77
2023/05/18 02:19:02;;;;;;;7.37;5.63;;;;;;;6.40;100.00;100941.44;5088137;28;20194;-78
2023/05/18 02:21:27;;;;;;;6.67;4.90;;;;;;;6.39;100.00;100936.25;5087246;28;20206;-77
2023/05/18 02:23:52;;;;;;;6.63;4.80;;;;;;;6.39;100.00;100928.53;5089271;28;20752;-77
2023/05/18 02:26:18;;;;;;;7.10;4.87;;;;;;;6.42;100.00;100935.44;5069774;28;20211;-77
2023/05/18 02:28:43;;;;;;;6.37;4.77;;;;;;;6.43;100.00;100929.47;5072162;28;20255;-76
2023/05/18 02:31:13;;;;;;;6.90;4.93;;;;;;;6.47;100.00;100936.38;5087625;28;20180;-78
2023/05/18 02:33:39;;;;;;;6.53;4.60;;;;;;;6.47;100.00;100931.25;5066062;28;20733;-77
2023/05/18 02:36:12;;;;;;;7.23;4.20;;;;;;;6.50;100.00;100924.47;5091689;28;20206;-77
2023/05/18 02:38:39;;;;;;;7.47;4.40;;;;;;;6.53;100.00;100926.22;5074567;28;20286;-77
2023/05/18 02:41:05;;;;;;;5.53;4.17;;;;;;;6.53;100.00;100927.06;5091980;28;20178;-76
2023/05/18 02:43:31;;;;;;;6.33;4.27;;;;;;;6.52;100.00;100924.50;5090726;28;20206;-77
2023/05/18 02:45:56;;;;;;;8.60;4.83;;;;;;;6.54;100.00;100915.09;5071491;28;20213;-78
2023/05/18 02:48:21;;;;;;;6.10;4.67;;;;;;;6.54;100.00;100921.09;5092256;28;20176;-78
2023/05/18 02:50:50;;;;;;;6.53;4.47;;;;;;;6.49;100.00;100921.84;5087325;28;20188;-77
2023/05/18 02:53:15;;;;;;;7.53;4.50;;;;;;;6.49;100.00;100929.56;5099511;28;20183;-77
2023/05/18 02:55:42;;;;;;;4.77;4.30;;;;;;;6.40;100.00;100920.88;5088430;28;20218;-78
2023/05/18 02:58:07;;;;;;;5.93;4.20;;;;;;;6.38;100.00;100922.53;5088293;28;20701;-76
2023/05/18 03:00:33;;;;;;;6.67;4.77;;;;;;;6.36;100.00;100928.47;5083087;28;20169;-77
2023/05/18 03:02:59;;;;;;;10.50;5.10;;;;;;;6.36;100.00;100924.22;5084190;28;20186;-77
2023/05/18 03:05:25;;;;;;;5.83;4.23;;;;;;;6.30;100.00;100920.66;5088930;28;20182;-77
2023/05/18 03:07:51;;;;;;;6.17;4.80;;;;;;;6.26;100.00;100924.88;5084830;28;20780;-77
2023/05/18 03:10:18;;;;;;;6.03;4.57;;;;;;;6.23;100.00;100929.97;5068319;28;20184;-78
2023/05/18 03:12:43;;;;;;;6.63;4.90;;;;;;;6.16;100.00;100925.53;5075809;28;20646;-77
2023/05/18 03:15:10;;;;;;;6.90;4.50;;;;;;;6.13;100.00;100928.91;5087212;28;20229;-77
2023/05/18 03:17:36;;;;;;;5.27;4.20;;;;;;;6.12;100.00;100924.59;5085707;28;20579;-77
2023/05/18 03:20:01;;;;;;;6.43;4.37;;;;;;;6.14;100.00;100919.47;5058900;28;20306;-76
2023/05/18 03:22:26;;;;;;;8.60;4.97;;;;;;;6.12;100.00;100926.31;5089987;28;20194;-77
2023/05/18 03:24:54;;;;;;;6.30;4.87;;;;;;;6.09;100.00;100927.09;5083865;28;20531;-77
2023/05/18 03:27:24;;;;;;;8.63;4.83;;;;;;;6.11;100.00;100930.56;5092071;28;20216;-77
2023/05/18 03:29:51;;;;;;;5.87;4.33;;;;;;;6.06;100.00;100932.19;5091901;28;20476;-77
2023/05/18 03:32:17;;;;;;;7.40;4.87;;;;;;;6.06;100.00;100925.34;5077050;28;20197;-77
2023/05/18 03:34:44;;;;;;;6.87;4.50;;;;;;;6.01;100.00;100928.66;5091877;28;20183;-76
2023/05/18 03:37:09;;;;;;;7.17;4.90;;;;;;;5.99;100.00;100935.44;5088900;28;20226;-77
2023/05/18 03:39:35;;;;;;;6.30;4.27;;;;;;;5.93;100.00;100937.03;5066038;28;20181;-77
2023/05/18 03:42:00;;;;;;;5.90;4.53;;;;;;;5.91;100.00;100931.00;5075929;28;20187;-77
2023/05/18 03:44:26;;;;;;;5.90;4.03;;;;;;;5.89;100.00;100942.09;5065614;28;20188;-77
2023/05/18 03:46:51;;;;;;;7.10;4.50;;;;;;;5.84;100.00;100933.41;5067154;28;20206;-77
2023/05/18 03:49:17;;;;;;;7.77;4.30;;;;;;;5.82;100.00;100941.09;5066850;28;20270;-76
2023/05/18 03:51:42;;;;;;;6.63;4.40;;;;;;;5.80;100.00;100943.66;5082071;28;20240;-77
2023/05/18 03:54:07;;;;;;;6.83;4.40;;;;;;;5.79;100.00;100944.47;5081460;28;20440;-77
2023/05/18 03:56:33;;;;;;;4.73;3.97;;;;;;;5.80;100.00;100948.78;5085795;28;20298;-76
2023/05/18 03:58:58;;;;;;;6.60;4.13;;;;;;;5.83;100.00;100947.97;5065061;28;20229;-78
2023/05/18 04:01:24;;;;;;;6.10;4.30;;;;;;;5.85;100.00;100948.88;5079427;28;20302;-77
2023/05/18 04:03:50;;;;;;;6.83;4.20;;;;;;;5.89;100.00;100953.25;5085375;28;20207;-77
2023/05/18 04:06:15;;;;;;;4.27;3.83;;;;;;;5.90;100.00;100952.38;5080722;28;20206;-76
2023/05/18 04:08:42;;;;;;;8.77;4.30;;;;;;;5.95;100.00;100955.94;5070095;28;20187;-78
2023/05/18 04:11:07;;;;;;;6.03;4.27;;;;;;;6.05;100.00;100957.03;5084943;28;20228;-78
2023/05/18 04:13:33;;;;;;;5.30;4.37;;;;;;;6.33;100.00;100960.13;5088116;28;20250;-77
2023/05/18 04:15:59;;;;;;;6.10;4.23;;;;;;;6.65;100.00;100959.88;5070399;28;20221;-77
2023/05/18 04:18:28;;;;;;;6.23;4.17;;;;;;;6.92;100.00;100963.75;5069604;28;20254;-77
2023/05/18 04:20:55;;;;;;;6.87;3.90;;;;;;;7.19;100.00;100965.03;5066134;28;20346;-77
2023/05/18 04:23:20;;;;;;;5.53;4.47;;;;;;;7.25;100.00;100957.44;5064736;28;20237;-78
2023/05/18 04:25:46;;;;;;;7.00;4.03;;;;;;;7.22;100.00;100959.94;5069896;28;20902;-77
2023/05/18 04:28:11;;;;;;;6.07;4.13;;;;;;;7.25;100.00;100974.59;5061654;28;20234;-78
2023/05/18 04:30:36;;;;;;;5.60;3.90;;;;;;;7.38;100.00;100979.09;5089027;28;20276;-78
2023/05/18 04:33:03;;;;;;;6.00;3.87;;;;;;;7.55;100.00;100975.91;5084212;28;20190;-77
2023/05/18 04:35:30;;;;;;;4.83;3.60;;;;;;;7.74;100.00;100977.03;5067517;28;20796;-77
2023/05/18 04:37:56;;;;;;;4.77;3.90;;;;;;;7.74;100.00;100982.19;5089517;28;20195;-77
2023/05/18 04:40:21;;;;;;;6.17;3.80;;;;;;;7.71;100.00;100979.56;5066918;28;20184;-77
2023/05/18 04:42:47;;;;;;;8.00;4.47;;;;;;;7.77;100.00;100987.38;5086822;28;20181;-76
2023/05/18 04:45:16;;;;;;;6.40;3.87;;;;;;;7.78;100.00;100989.97;5083822;28;20196;-80
2023/05/18 04:47:45;;;;;;;6.13;4.13;;;;;;;7.77;100.00;100992.53;5066493;28;20208;-77
2023/05/18 04:50:14;;;;;;;4.80;3.60;;;;;;;7.80;100.00;100996.84;5082151;28;20729;-76
2023/05/18 04:52:47;;;;;;;7.67;3.70;;;;;;;7.78;99.74;100995.13;5085086;28;20269;-76
2023/05/18 04:55:21;;;;;;;7.17;3.77;;;;;;;7.92;99.81;100995.31;5083113;28;20206;-76
2023/05/18 04:57:48;;;;;;;6.00;3.70;;;;;;;8.01;99.02;100993.69;5092177;28;20206;-76
2023/05/18 05:00:14;;;;;;;5.37;3.63;;;;;;;8.03;98.37;100992.00;5091279;28;20192;-76
2023/05/18 05:02:39;;;;;;;5.57;3.90;;;;;;;8.06;98.10;100998.06;5093373;28;20260;-77
2023/05/18 05:05:05;;;;;;;5.10;3.53;;;;;;;8.14;97.76;101000.75;5093392;28;20642;-76
2023/05/18 05:07:30;;;;;;;4.80;3.40;;;;;;;8.27;97.64;100998.31;5071960;28;20205;-77
2023/05/18 05:09:56;;;;;;;6.87;4.27;;;;;;;8.58;95.77;100999.56;5077054;28;20252;-77
2023/05/18 05:12:21;;;;;;;4.33;3.90;;;;;;;9.03;94.49;100999.13;5071923;28;20269;-76
2023/05/18 05:14:46;;;;;;;7.53;3.70;;;;;;;9.32;92.26;101003.69;5070634;28;20661;-77
2023/05/18 05:17:12;;;;;;;6.23;3.47;;;;;;;9.89;91.39;101004.06;5091831;28;20201;-77
2023/05/18 05:19:37;;;;;;;6.43;3.70;;;;;;;10.55;88.77;100995.72;5088829;28;20181;-77
2023/05/18 05:22:03;;;;;;;5.60;3.07;;;;;;;11.69;85.60;100997.47;5074620;28;20254;-77
2023/05/18 05:24:28;;;;;;;4.13;3.40;;;;;;;12.74;81.55;100998.78;5073216;28;20196;-77
2023/05/18 05:26:53;;;;;;;6.57;3.27;;;;;;;13.59;77.96;100991.19;5082488;28;20201;-77
2023/05/18 05:29:19;;;;;;;5.10;2.90;;;;;;;14.30;75.89;100986.00;5088476;28;20255;-77
2023/05/18 05:31:44;;;;;;;5.37;3.23;;;;;;;14.52;72.76;100983.09;5090010;28;20208;-77
2023/05/18 05:34:10;;;;;;;7.77;3.40;;;;;;;14.77;71.53;100986.25;5073902;28;20733;-76
2023/05/18 05:36:36;;;;;;;5.90;3.50;;;;;;;15.35;70.67;100993.16;5090033;28;20296;-76
2023/05/18 05:39:02;;;;;;;5.07;2.97;;;;;;;15.13;69.21;100996.13;5065837;28;20184;-76
2023/05/18 05:41:27;;;;;;;5.10;3.47;;;;;;;15.42;69.29;100997.34;5086984;28;20240;-75
2023/05/18 05:43:52;;;;;;;5.97;3.30;;;;;;;15.76;67.88;100986.31;5089545;28;20965;-75
2023/05/18 05:46:18;;;;;;;4.83;2.93;;;;;;;15.51;67.57;100991.97;5084411;28;20307;-77
2023/05/18 05:48:43;;;;;;;4.23;2.83;;;;;;;16.28;66.88;100991.38;5088312;28;20666;-77
2023/05/18 05:51:08;;;;;;;6.50;3.10;;;;;;;16.35;65.66;100995.56;5072086;28;20213;-77
2023/05/18 05:53:34;;;;;;;5.40;3.57;;;;;;;15.91;66.90;100987.78;5091498;28;20211;-77
2023/05/18 05:55:59;;;;;;;5.07;3.00;;;;;;;15.56;67.00;100991.91;5089962;28;20291;-76
2023/05/18 05:58:24;;;;;;;6.00;3.30;;;;;;;16.44;65.80;100995.38;5073719;28;20189;-76
2023/05/18 06:00:50;;;;;;;5.33;2.70;;;;;;;16.26;65.38;100982.72;5083191;28;20197;-76
2023/05/18 06:03:15;;;;;;;5.60;3.00;;;;;;;16.64;64.89;100988.84;5064870;28;20581;-77
2023/05/18 06:05:41;;;;;;;7.37;3.37;;;;;;;16.95;63.96;100988.16;5065265;28;20180;-78
2023/05/18 06:08:06;;;;;;;7.60;3.13;;;;;;;16.19;64.86;100989.81;5080863;28;20541;-77
2023/05/18 06:10:31;;;;;;;4.43;2.83;;;;;;;16.81;64.34;100988.44;5073362;28;20198;-77
2023/05/18 06:12:57;;;;;;;6.37;3.30;;;;;;;16.77;63.46;100989.44;5090840;28;20181;-78
2023/05/18 06:15:22;;;;;;;5.87;3.13;;;;;;;17.09;63.22;100992.19;5082639;28;20206;-77
2023/05/18 06:17:48;;;;;;;5.97;2.97;;;;;;;17.47;62.77;100982.50;5090284;28;20990;-77
2023/05/18 06:20:13;;;;;;;5.30;3.07;;;;;;;18.20;61.92;100976.13;5092842;28;20190;-77
2023/05/18 06:22:39;;;;;;;5.33;2.80;;;;;;;18.61;60.96;100982.75;5090781;28;21505;-77
2023/05/18 06:25:05;;;;;;;5.60;3.03;;;;;;;18.32;60.88;100980.09;5089943;28;20236;-76
2023/05/18 06:27:30;;;;;;;5.47;2.93;;;;;;;18.71;60.59;100984.16;5092925;28;20218;-77
2023/05/18 06:29:56;;;;;;;4.33;2.60;;;;;;;18.84;59.47;100971.53;5064652;28;20181;-77
2023/05/18 06:32:21;;;;;;;8.57;3.20;;;;;;;18.34;59.49;100986.16;5087730;28;20184;-77
2023/05/18 06:34:49;;;;;;;4.47;2.80;;;;;;;18.11;61.11;100978.97;5083563;28;20188;-76
2023/05/18 06:37:16;;;;;;;6.47;2.93;;;;;;;18.38;60.06;100979.94;5071680;28;20204;-77
2023/05/18 06:39:41;;;;;;;4.97;3.00;;;;;;;18.24;60.47;100982.13;5066650;28;20659;-77
2023/05/18 06:42:07;;;;;;;4.27;2.93;;;;;;;18.27;60.55;100975.00;5060330;28;20186;-77
2023/05/18 06:44:34;;;;;;;6.40;3.00;;;;;;;18.50;60.58;100980.44;5070221;28;20192;-77
2023/05/18 06:46:59;;;;;;;6.33;3.40;;;;;;;18.27;60.45;100974.16;5069262;28;20226;-77
2023/05/18 06:49:25;;;;;;;4.43;2.53;;;;;;;18.71;59.79;100978.91;5086107;28;20686;-76
2023/05/18 06:51:50;;;;;;;4.13;2.50;;;;;;;17.73;60.60;100981.75;5090188;28;20185;-77
2023/05/18 06:54:16;;;;;;;5.83;2.80;;;;;;;18.01;60.39;100977.56;5091017;28;20197;-77
2023/05/18 06:56:41;;;;;;;6.83;3.20;;;;;;;17.48;61.14;100978.94;5086161;28;20211;-76
2023/05/18 06:59:06;;;;;;;8.07;3.10;;;;;;;17.45;61.96;100987.75;5087918;28;20192;-76
2023/05/18 07:01:32;;;;;;;7.03;3.03;;;;;;;17.67;61.61;100979.34;5090612;28;20183;-76
2023/05/18 07:03:57;;;;;;;4.70;2.60;;;;;;;18.03;60.91;100975.75;5066776;28;20195;-76
2023/05/18 07:06:23;;;;;;;8.47;3.23;;;;;;;17.48;61.16;100984.19;5082712;28;20637;-77
2023/05/18 07:08:48;;;;;;;5.47;2.83;;;;;;;17.06;62.71;100982.66;5063280;28;20197;-76
2023/05/18 07:11:14;;;;;;;6.23;3.10;;;;;;;17.44;61.11;100983.41;5080835;28;20237;-77
2023/05/18 07:13:39;;;;;;;5.33;2.60;;;;;;;16.88;62.79;100984.78;5079351;28;20651;-77
2023/05/18 07:16:05;;;;;;;5.60;2.30;;;;;;;17.62;62.26;100979.44;5080862;28;20230;-77
2023/05/18 07:18:30;;;;;;;5.47;2.60;;;;;;;17.89;61.13;100976.09;5077522;28;20203;-77
2023/05/18 07:20:56;;;;;;;6.13;2.93;;;;;;;17.81;61.13;100986.78;5082516;28;20185;-77
2023/05/18 07:23:22;;;;;;;5.83;3.00;;;;;;;17.54;62.07;100984.03;5079486;28;20280;-77
2023/05/18 07:25:48;;;;;;;9.77;2.83;;;;;;;17.64;62.30;100972.41;5078032;28;20184;-77
2023/05/18 07:28:13;;;;;;;5.37;2.80;;;;;;;18.01;60.96;100975.78;5062681;28;20191;-77
2023/05/18 07:30:39;;;;;;;5.40;2.77;;;;;;;18.08;61.40;100972.09;5079982;28;20306;-78
2023/05/18 07:33:04;;;;;;;6.03;3.00;;;;;;;17.85;60.91;100967.47;5062606;28;20192;-76
2023/05/18 07:35:30;;;;;;;6.47;3.20;;;;;;;17.63;61.55;100972.47;5079992;28;20270;-78
2023/05/18 07:37:55;;;;;;;5.20;2.50;;;;;;;16.99;62.33;100974.13;5067185;28;20338;-77
2023/05/18 07:40:20;;;;;;;5.43;3.27;;;;;;;16.72;62.61;100972.97;5086175;28;20678;-77
2023/05/18 07:42:46;;;;;;;5.90;2.97;;;;;;;17.14;62.54;100975.47;5087702;28;20192;-79
2023/05/18 07:45:12;;;;;;;6.53;3.00;;;;;;;17.04;62.76;100966.16;5082756;28;20656;-76
2023/05/18 07:47:37;;;;;;;6.27;3.03;;;;;;;16.97;62.71;100972.41;5062753;28;20585;-76
2023/05/18 07:50:03;;;;;;;7.63;3.07;;;;;;;17.03;62.48;100964.44;5081530;28;20205;-77
2023/05/18 07:52:29;;;;;;;7.27;3.20;;;;;;;16.90;62.19;100962.09;5060163;28;20184;-77
2023/05/18 07:54:58;;;;;;;6.77;2.97;;;;;;;16.81;62.82;100969.28;5085847;28;20563;-78
2023/05/18 07:57:24;;;;;;;7.63;2.77;;;;;;;16.88;62.33;100976.06;5076007;28;20207;-77
2023/05/18 07:59:50;;;;;;;11.60;3.27;;;;;;;16.40;63.39;100967.63;5064367;28;20681;-77
2023/05/18 08:02:16;;;;;;;5.30;2.80;;;;;;;16.21;64.10;100953.25;5085628;28;20241;-78
2023/05/18 08:04:41;;;;;;;11.53;3.30;;;;;;;16.28;64.67;100970.47;5079996;28;20187;-76
2023/05/18 08:07:07;;;;;;;7.03;2.80;;;;;;;16.00;64.32;100958.00;5078501;28;20227;-77
2023/05/18 08:09:33;;;;;;;7.33;2.93;;;;;;;16.09;64.32;100954.34;5086028;28;20294;-77
2023/05/18 08:11:58;;;;;;;6.47;2.87;;;;;;;15.90;64.29;100957.34;5079387;28;20198;-77
2023/05/18 08:14:24;;;;;;;6.93;2.93;;;;;;;15.88;65.43;100969.59;5066113;28;20192;-76
2023/05/18 08:16:49;;;;;;;6.63;3.17;;;;;;;15.47;66.27;100953.81;5065490;28;20248;-77
2023/05/18 08:19:15;;;;;;;3.93;2.77;;;;;;;15.47;66.02;100959.03;5082486;28;20190;-77
2023/05/18 08:21:40;;;;;;;8.87;3.40;;;;;;;15.62;66.52;100957.84;5081292;28;20184;-77
2023/05/18 08:24:06;;;;;;;6.47;3.00;;;;;;;15.50;66.39;100952.88;5063965;28;20173;-76
2023/05/18 08:26:32;;;;;;;6.67;3.17;;;;;;;15.55;66.42;100967.53;5078364;28;20201;-76
2023/05/18 08:28:57;;;;;;;8.60;3.47;;;;;;;15.24;67.20;100968.09;5080428;28;20185;-76
2023/05/18 08:31:22;;;;;;;5.10;3.03;;;;;;;15.15;66.88;100959.56;5081651;28;20176;-77
2023/05/18 08:33:48;;;;;;;6.80;3.33;;;;;;;15.24;67.27;100968.09;5083910;28;20254;-77
2023/05/18 08:36:14;;;;;;;5.93;3.03;;;;;;;15.19;67.79;100961.25;5080631;28;20255;-77
2023/05/18 08:38:39;;;;;;;6.67;2.93;;;;;;;15.07;68.34;100957.09;5082444;28;20177;-76
2023/05/18 08:41:19;;;;;;;5.20;3.20;;;;;;;15.19;67.82;100946.50;5063157;28;20181;-76
2023/05/18 08:43:47;;;;;;;6.53;2.67;;;;;;;15.12;68.16;100951.84;5061423;28;20560;-76
2023/05/18 08:46:20;;;;;;;5.63;3.37;;;;;;;14.82;68.78;100947.09;5085624;28;20233;-77
2023/05/18 08:48:46;;;;;;;7.17;3.10;;;;;;;14.73;68.80;100950.69;5084275;28;20200;-77
2023/05/18 08:51:15;;;;;;;7.73;3.63;;;;;;;14.87;69.87;100947.00;5064136;28;20215;-76
2023/05/18 08:53:42;;;;;;;6.03;3.40;;;;;;;14.95;69.27;100937.34;5084014;28;20242;-77
2023/05/18 08:56:10;;;;;;;6.23;3.07;;;;;;;14.73;69.78;100947.25;5085029;28;20333;-77
2023/05/18 08:58:47;;;;;;;5.43;3.53;;;;;;;14.65;70.32;100934.31;5077535;28;20181;-77
2023/05/18 09:01:13;;;;;;;6.43;3.57;;;;;;;14.70;69.79;100926.44;5065716;28;20200;-77
2023/05/18 09:03:40;;;;;;;6.73;3.67;;;;;;;14.59;69.72;100940.47;5084302;28;20224;-77
2023/05/18 09:06:06;;;;;;;7.67;3.87;;;;;;;14.76;69.43;100924.59;5086217;28;20285;-77
2023/05/18 09:08:32;;;;;;;7.17;3.57;;;;;;;14.79;71.00;100926.28;5081201;28;20211;-77
2023/05/18 09:11:00;;;;;;;5.67;3.83;;;;;;;14.71;69.90;100936.84;5083689;28;20213;-77
2023/05/18 09:13:26;;;;;;;7.27;3.70;;;;;;;14.79;71.54;100923.69;5087772;28;20189;-76
2023/05/18 09:15:52;;;;;;;6.53;4.00;;;;;;;15.07;69.41;100929.31;5084733;28;20225;-77
2023/05/18 09:18:17;;;;;;;7.63;4.10;;;;;;;15.13;70.07;100940.50;5065359;28;20232;-76
2023/05/18 09:20:43;;;;;;;5.93;3.00;;;;;;;15.11;69.78;100924.88;5082955;28;20549;-77
2023/05/18 09:23:14;;;;;;;7.60;3.50;;;;;;;15.19;70.72;100930.84;5083726;28;20518;-77
2023/05/18 09:25:45;;;;;;;8.00;3.97;;;;;;;15.32;71.27;100917.56;5067629;28;20173;-76
2023/05/18 09:28:13;;;;;;;6.60;4.00;;;;;;;15.36;69.85;100916.59;5066290;28;20924;-76
2023/05/18 09:30:41;;;;;;;7.37;4.07;;;;;;;15.50;69.86;100925.03;5078630;28;20183;-76
2023/05/18 09:33:15;;;;;;;7.43;3.27;;;;;;;15.76;69.25;100917.56;5061675;28;20185;-77
2023/05/18 09:35:41;;;;;;;7.33;3.57;;;;;;;15.77;67.69;100924.53;5082986;28;20211;-77
2023/05/18 09:38:07;;;;;;;4.80;3.67;;;;;;;15.85;67.96;100914.84;5058877;28;20354;-76
2023/05/18 09:40:33;;;;;;;8.53;4.13;;;;;;;15.62;68.30;100923.09;5081046;28;20581;-77
2023/05/18 09:43:06;;;;;;;8.30;4.60;;;;;;;15.55;68.25;100911.91;5085074;28;20175;-77
2023/05/18 09:45:31;;;;;;;4.93;3.33;;;;;;;15.63;68.51;100917.00;5083994;28;20218;-76
2023/05/18 09:47:57;;;;;;;5.40;3.60;;;;;;;15.76;66.88;100910.63;5082176;28;20213;-75
2023/05/18 09:50:23;;;;;;;5.60;3.47;;;;;;;15.88;68.12;100901.72;5069132;28;20212;-76
2023/05/18 09:52:49;;;;;;;6.57;3.83;;;;;;;16.11;68.38;100901.19;5088733;28;20176;-77
2023/05/18 09:55:15;;;;;;;8.43;3.57;;;;;;;16.11;66.39;100921.25;5069665;28;20205;-76
2023/05/18 09:57:50;;;;;;;6.67;3.53;;;;;;;15.98;66.49;100898.00;5083584;28;20212;-76
2023/05/18 10:00:18;;;;;;;7.63;3.60;;;;;;;15.99;67.69;100902.34;5082468;28;20868;-77
2023/05/18 10:02:50;;;;;;;5.20;3.33;;;;;;;16.28;67.10;100905.19;5086225;28;20185;-76
2023/05/18 10:05:26;;;;;;;6.40;3.33;;;;;;;16.74;66.77;100900.63;5087945;28;20173;-77
2023/05/18 10:07:52;;;;;;;7.60;3.40;;;;;;;16.88;65.52;100913.34;5065015;28;20724;-75
2023/05/18 10:10:19;;;;;;;6.17;3.50;;;;;;;16.91;63.89;100894.97;5085690;28;20201;-77
2023/05/18 10:12:45;;;;;;;6.27;3.63;;;;;;;16.95;63.63;100896.63;5067705;28;20220;-78
2023/05/18 10:15:15;;;;;;;6.13;3.70;;;;;;;16.94;64.16;100902.72;5087459;28;20236;-77
2023/05/18 10:17:42;;;;;;;5.83;3.77;;;;;;;16.89;65.41;100892.41;5085062;28;20202;-76
2023/05/18 10:20:08;;;;;;;8.77;3.77;;;;;;;16.96;64.27;100921.00;5069687;28;20195;-76
2023/05/18 10:22:36;;;;;;;8.17;4.20;;;;;;;16.91;63.64;100890.59;5081251;28;20177;-78
2023/05/18 10:25:09;;;;;;;8.40;3.37;;;;;;;16.83;65.56;100910.84;5067796;28;20185;-77
2023/05/18 10:27:35;;;;;;;6.67;3.70;;;;;;;16.55;64.62;100900.22;5067337;28;20873;-78
2023/05/18 10:30:03;;;;;;;6.83;3.03;;;;;;;16.87;65.19;100894.19;5079323;28;20221;-76
2023/05/18 10:32:31;;;;;;;7.33;3.87;;;;;;;16.79;64.53;100901.34;5069487;28;20198;-76
2023/05/18 10:34:58;;;;;;;4.43;3.07;;;;;;;16.81;64.49;100889.09;5084923;28;20181;-78
2023/05/18 10:37:29;;;;;;;5.63;3.47;;;;;;;16.87;63.93;100890.69;5086195;28;20208;-79
2023/05/18 10:39:56;;;;;;;9.27;3.47;;;;;;;16.84;63.54;100889.03;5082921;28;20224;-75
2023/05/18 10:42:24;;;;;;;7.67;4.03;;;;;;;16.74;63.72;100908.47;5082667;28;20215;-75
2023/05/18 10:44:52;;;;;;;5.77;3.43;;;;;;;16.80;64.08;100878.69;5084312;28;20613;-75
2023/05/18 10:47:18;;;;;;;7.13;3.50;;;;;;;16.85;63.81;100885.53;5068946;28;20618;-76
2023/05/18 10:49:47;;;;;;;8.60;3.67;;;;;;;16.88;63.23;100884.56;5083977;28;20190;-75
2023/05/18 10:52:16;;;;;;;6.50;3.90;;;;;;;16.70;63.72;100893.75;5085526;28;20235;-76
2023/05/18 10:54:42;;;;;;;7.83;3.77;;;;;;;17.03;64.38;100899.06;5082824;28;20186;-76
2023/05/18 10:57:12;;;;;;;6.87;3.50;;;;;;;17.19;62.42;100875.97;5083947;28;20239;-77
2023/05/18 10:59:43;;;;;;;8.37;3.40;;;;;;;17.40;63.63;100874.50;5064047;28;20237;-79
2023/05/18 11:02:12;;;;;;;6.50;3.13;;;;;;;17.52;63.42;100871.56;5081265;28;20223;-76
2023/05/18 11:04:39;;;;;;;6.67;3.30;;;;;;;17.37;61.84;100904.25;5081109;28;20198;-76
2023/05/18 11:07:09;;;;;;;9.13;3.50;;;;;;;17.22;61.91;100878.50;5086759;28;20250;-76
2023/05/18 11:09:34;;;;;;;5.43;3.00;;;;;;;17.48;61.30;100877.78;5085699;28;20212;-77
2023/05/18 11:12:00;;;;;;;6.27;3.33;;;;;;;17.60;61.41;100860.88;5081491;28;20193;-77
2023/05/18 11:14:31;;;;;;;9.27;3.50;;;;;;;17.67;61.60;100904.28;5087408;28;20195;-77
2023/05/18 11:17:20;;;;;;;8.70;3.70;;;;;;;17.42;61.95;100871.88;5058475;28;20221;-77
2023/05/18 11:20:11;;;;;;;7.00;3.37;;;;;;;17.14;62.18;100883.94;5050206;28;20281;-76
2023/05/18 11:22:55;;;;;;;6.37;2.87;;;;;;;17.01;63.09;100882.53;5083565;28;20877;-78
2023/05/18 11:25:27;;;;;;;4.60;2.80;;;;;;;17.01;62.80;100856.41;5071119;28;20187;-77